createdAt,value
2018-09-04T00:01:22.592Z,101820.47
2018-09-04T00:03:51.460Z,101811.98
2018-09-04T00:06:20.274Z,101817.08
2018-09-04T00:08:49.158Z,101814.91
2018-09-04T00:11:18.012Z,101813.91
2018-09-04T00:13:46.883Z,101813.50
2018-09-04T00:16:15.741Z,101815.25
2018-09-04T00:18:44.544Z,101804.57
2018-09-04T00:21:13.452Z,101802.78
2018-09-04T00:23:42.244Z,101808.66
2018-09-04T00:26:11.130Z,101806.52
2018-09-04T00:28:39.939Z,101808.65
2018-09-04T00:31:09.095Z,101805.28
2018-09-04T00:33:37.891Z,101808.97
2018-09-04T00:36:07.422Z,101805.27
2018-09-04T00:38:36.227Z,101800.17
2018-09-04T00:41:05.129Z,101800.88
2018-09-04T00:43:33.922Z,101804.22
2018-09-04T00:46:02.829Z,101800.08
2018-09-04T00:48:31.611Z,101806.19
2018-09-04T00:51:00.575Z,101808.12
2018-09-04T00:53:29.392Z,101815.08
2018-09-04T00:55:58.618Z,101813.31
2018-09-04T00:58:27.463Z,101820.66
2018-09-04T01:00:56.267Z,101820.76
2018-09-04T01:03:25.147Z,101815.16
2018-09-04T01:05:53.936Z,101815.75
2018-09-04T01:08:23.135Z,101815.89
2018-09-04T01:10:51.916Z,101817.47
2018-09-04T01:13:20.735Z,101821.36
2018-09-04T01:15:49.583Z,101816.83
2018-09-04T01:18:18.408Z,101820.14
2018-09-04T01:20:47.224Z,101820.92
2018-09-04T01:23:16.059Z,101815.81
2018-09-04T01:25:44.863Z,101819.90
2018-09-04T01:28:13.865Z,101819.48
2018-09-04T01:30:42.900Z,101818.23
2018-09-04T01:33:11.736Z,101816.28
2018-09-04T01:35:40.671Z,101817.02
2018-09-04T01:38:09.519Z,101812.44
2018-09-04T01:40:38.367Z,101821.48
2018-09-04T01:43:07.198Z,101811.22
2018-09-04T01:45:36.904Z,101815.52
2018-09-04T01:48:05.868Z,101817.09
2018-09-04T01:50:34.719Z,101815.84
2018-09-04T01:53:03.716Z,101818.95
2018-09-04T01:55:32.545Z,101812.25
2018-09-04T01:58:01.328Z,101817.61
2018-09-04T02:00:30.176Z,101808.52
2018-09-04T02:02:58.978Z,101813.50
2018-09-04T02:05:28.156Z,101817.45
2018-09-04T02:07:56.930Z,101819.88
2018-09-04T02:10:25.768Z,101813.08
2018-09-04T02:12:54.842Z,101816.03
2018-09-04T02:15:23.845Z,101817.09
2018-09-04T02:17:52.684Z,101814.58
2018-09-04T02:20:21.522Z,101814.23
2018-09-04T02:22:50.347Z,101810.48
2018-09-04T02:25:19.185Z,101808.84
2018-09-04T02:27:48.246Z,101807.91
2018-09-04T02:30:17.235Z,101802.28
2018-09-04T02:32:46.017Z,101812.02
2018-09-04T02:35:14.859Z,101806.45
2018-09-04T02:37:43.644Z,101814.28
2018-09-04T02:40:12.503Z,101814.77
2018-09-04T02:42:41.337Z,101806.84
2018-09-04T02:45:10.177Z,101802.59
2018-09-04T02:47:39.015Z,101804.13
2018-09-04T02:50:07.771Z,101804.81
2018-09-04T02:52:36.622Z,101798.16
2018-09-04T02:55:05.559Z,101800.63
2018-09-04T02:57:34.379Z,101802.25
2018-09-04T03:00:03.359Z,101794.93
2018-09-04T03:02:32.178Z,101797.73
2018-09-04T03:05:01.244Z,101796.41
2018-09-04T03:07:30.151Z,101797.52
2018-09-04T03:09:58.972Z,101798.74
2018-09-04T03:12:27.792Z,101801.31
2018-09-04T03:14:56.594Z,101800.31
2018-09-04T03:17:25.427Z,101795.14
2018-09-04T03:19:54.282Z,101791.62
2018-09-04T03:22:23.109Z,101792.38
2018-09-04T03:24:51.896Z,101784.11
2018-09-04T03:27:20.714Z,101790.54
2018-09-04T03:29:49.774Z,101790.22
2018-09-04T03:32:18.660Z,101781.27
2018-09-04T03:34:47.467Z,101779.20
2018-09-04T03:37:16.427Z,101783.33
2018-09-04T03:39:45.266Z,101780.91
2018-09-04T03:42:14.159Z,101785.09
2018-09-04T03:44:43.079Z,101784.84
2018-09-04T03:47:11.895Z,101788.55
2018-09-04T03:49:40.798Z,101788.51
2018-09-04T03:52:09.601Z,101787.40
2018-09-04T03:54:38.767Z,101787.62
2018-09-04T03:57:07.635Z,101789.11
2018-09-04T03:59:36.482Z,101802.16
2018-09-04T04:02:05.611Z,101802.78
2018-09-04T04:04:34.459Z,101806.11
2018-09-04T04:07:03.314Z,101802.78
2018-09-04T04:09:32.204Z,101804.06
2018-09-04T04:12:01.350Z,101806.77
2018-09-04T04:14:30.133Z,101807.02
2018-09-04T04:16:59.085Z,101808.52
2018-09-04T04:19:27.920Z,101805.70
2018-09-04T04:21:56.739Z,101808.72
2018-09-04T04:24:25.566Z,101809.67
2018-09-04T04:26:54.330Z,101807.67
2018-09-04T04:29:23.227Z,101811.64
2018-09-04T04:31:52.020Z,101812.16
2018-09-04T04:34:20.887Z,101810.75
2018-09-04T04:36:49.687Z,101813.48
2018-09-04T04:39:18.504Z,101812.83
2018-09-04T04:41:47.272Z,101817.62
2018-09-04T04:44:16.032Z,101807.23
2018-09-04T04:46:45.316Z,101814.95
2018-09-04T04:49:14.104Z,101810.50
2018-09-04T04:51:42.919Z,101814.44
2018-09-04T04:54:11.703Z,101820.39
2018-09-04T04:56:40.531Z,101816.72
2018-09-04T04:59:09.530Z,101819.63
2018-09-04T05:01:38.476Z,101822.61
2018-09-04T05:04:07.637Z,101824.19
2018-09-04T05:06:36.436Z,101826.31
2018-09-04T05:09:08.052Z,101830.50
2018-09-04T05:11:37.034Z,101834.98
2018-09-04T05:14:05.943Z,101831.21
2018-09-04T05:16:34.795Z,101828.22
2018-09-04T05:19:03.599Z,101831.70
2018-09-04T05:21:32.413Z,101833.62
2018-09-04T05:24:01.265Z,101833.97
2018-09-04T05:26:30.125Z,101833.89
2018-09-04T05:28:58.912Z,101834.80
2018-09-04T05:31:28.378Z,101840.02
2018-09-04T05:33:57.293Z,101838.27
2018-09-04T05:36:26.213Z,101846.24
2018-09-04T05:38:54.976Z,101839.06
2018-09-04T05:41:23.916Z,101841.44
2018-09-04T05:43:57.825Z,101841.48
2018-09-04T05:46:32.596Z,101838.06
2018-09-04T05:49:01.854Z,101843.20
2018-09-04T05:51:30.677Z,101846.56
2018-09-04T05:53:59.935Z,101847.24
2018-09-04T05:56:28.841Z,101850.08
2018-09-04T05:58:57.665Z,101854.55
2018-09-04T06:01:26.612Z,101859.59
2018-09-04T06:03:55.452Z,101862.33
2018-09-04T06:06:24.215Z,101856.92
2018-09-04T06:08:53.120Z,101855.45
2018-09-04T06:11:21.920Z,101857.39
2018-09-04T06:13:50.885Z,101853.23
2018-09-04T06:16:19.659Z,101854.97
2018-09-04T06:18:48.495Z,101853.08
2018-09-04T06:21:17.292Z,101853.13
2018-09-04T06:23:46.149Z,101855.06
2018-09-04T06:26:14.973Z,101851.30
2018-09-04T06:28:43.807Z,101858.55
2018-09-04T06:31:12.609Z,101858.34
2018-09-04T06:33:41.767Z,101860.30
2018-09-04T06:36:10.590Z,101863.53
2018-09-04T06:38:39.580Z,101859.83
2018-09-04T06:41:08.443Z,101861.59
2018-09-04T06:43:37.238Z,101862.77
2018-09-04T06:46:06.200Z,101862.91
2018-09-04T06:48:35.480Z,101864.39
2018-09-04T06:51:06.612Z,101859.59
2018-09-04T06:53:35.538Z,101864.15
2018-09-04T06:56:04.549Z,101864.15
2018-09-04T06:58:33.347Z,101862.78
2018-09-04T07:01:02.233Z,101861.93
2018-09-04T07:03:31.093Z,101863.44
2018-09-04T07:05:59.977Z,101866.38
2018-09-04T07:08:28.740Z,101867.14
2018-09-04T07:10:57.564Z,101867.66
2018-09-04T07:13:26.340Z,101869.84
2018-09-04T07:15:55.229Z,101868.86
2018-09-04T07:18:24.016Z,101863.73
2018-09-04T07:20:53.248Z,101867.84
2018-09-04T07:23:22.149Z,101871.63
2018-09-04T07:25:51.007Z,101873.29
2018-09-04T07:28:19.846Z,101866.66
2018-09-04T07:30:48.735Z,101869.55
2018-09-04T07:33:17.609Z,101872.60
2018-09-04T07:35:46.478Z,101872.84
2018-09-04T07:38:15.269Z,101879.21
2018-09-04T07:40:44.190Z,101879.20
2018-09-04T07:43:12.980Z,101881.30
2018-09-04T07:45:41.799Z,101877.89
2018-09-04T07:48:10.633Z,101879.16
2018-09-04T07:50:39.413Z,101876.42
2018-09-04T07:53:08.328Z,101874.86
2018-09-04T07:55:37.082Z,101874.55
2018-09-04T07:58:05.912Z,101873.73
2018-09-04T08:00:34.782Z,101878.64
2018-09-04T08:03:03.631Z,101879.80
2018-09-04T08:05:32.531Z,101882.14
2018-09-04T08:08:01.390Z,101886.73
2018-09-04T08:10:33.639Z,101888.81
2018-09-04T08:13:07.032Z,101889.33
2018-09-04T08:15:37.419Z,101886.76
2018-09-04T08:18:06.302Z,101888.45
2018-09-04T08:20:35.213Z,101888.14
2018-09-04T08:23:04.001Z,101884.73
2018-09-04T08:25:32.776Z,101887.14
2018-09-04T08:28:02.021Z,101889.08
2018-09-04T08:30:30.826Z,101891.22
2018-09-04T08:32:59.889Z,101890.23
2018-09-04T08:35:28.459Z,101893.23
2018-09-04T08:37:59.724Z,101898.77
2018-09-04T08:40:31.089Z,101895.33
2018-09-04T08:43:01.481Z,101894.23
2018-09-04T08:45:31.552Z,101890.39
2018-09-04T08:48:02.348Z,101896.06
2018-09-04T08:50:32.929Z,101890.67
2018-09-04T08:53:01.785Z,101897.88
2018-09-04T08:55:30.653Z,101897.49
2018-09-04T08:57:59.419Z,101897.70
2018-09-04T09:00:28.280Z,101900.70
2018-09-04T09:02:57.252Z,101899.91
2018-09-04T09:05:26.123Z,101901.41
2018-09-04T09:07:55.009Z,101900.82
2018-09-04T09:10:23.865Z,101905.23
2018-09-04T09:12:52.638Z,101900.96
2018-09-04T09:15:21.594Z,101896.90
2018-09-04T09:17:50.372Z,101900.45
2018-09-04T09:20:19.238Z,101901.94
2018-09-04T09:22:48.043Z,101892.64
2018-09-04T09:25:16.821Z,101895.48
2018-09-04T09:27:45.781Z,101887.86
2018-09-04T09:30:14.590Z,101880.56
2018-09-04T09:32:43.395Z,101879.98
2018-09-04T09:35:12.190Z,101876.31
2018-09-04T09:37:41.028Z,101882.67
2018-09-04T09:40:09.882Z,101879.09
2018-09-04T09:42:38.772Z,101881.16
2018-09-04T09:45:07.623Z,101880.34
2018-09-04T09:47:40.943Z,101880.81
2018-09-04T09:50:09.771Z,101887.25
2018-09-04T09:52:38.869Z,101883.66
2018-09-04T09:55:08.736Z,101882.14
2018-09-04T09:57:37.623Z,101879.40
2018-09-04T10:00:08.180Z,101880.36
2018-09-04T10:02:42.484Z,101881.92
2018-09-04T10:05:11.591Z,101873.03
2018-09-04T10:07:40.464Z,101869.49
2018-09-04T10:10:09.268Z,101872.04
2018-09-04T10:12:38.132Z,101868.33
2018-09-04T10:15:06.987Z,101873.62
2018-09-04T10:17:35.924Z,101861.03
2018-09-04T10:20:04.881Z,101860.91
2018-09-04T10:22:33.704Z,101865.72
2018-09-04T10:25:02.472Z,101862.39
2018-09-04T10:27:31.287Z,101856.51
2018-09-04T10:30:00.122Z,101862.58
2018-09-04T10:32:28.989Z,101856.63
2018-09-04T10:34:57.780Z,101857.64
2018-09-04T10:37:26.640Z,101855.55
2018-09-04T10:40:00.905Z,101854.09
2018-09-04T10:42:30.795Z,101860.48
2018-09-04T10:44:59.751Z,101862.88
2018-09-04T10:47:28.733Z,101849.41
2018-09-04T10:49:57.668Z,101853.85
2018-09-04T10:52:26.454Z,101847.34
2018-09-04T10:54:55.427Z,101847.52
2018-09-04T10:57:24.196Z,101843.95
2018-09-04T10:59:52.996Z,101845.04
2018-09-04T11:02:21.879Z,101838.45
2018-09-04T11:04:50.895Z,101831.42
2018-09-04T11:07:19.715Z,101832.31
2018-09-04T11:09:48.989Z,101824.08
2018-09-04T11:12:17.729Z,101827.61
2018-09-04T11:14:46.580Z,101827.72
2018-09-04T11:17:15.387Z,101825.89
2018-09-04T11:19:44.284Z,101830.59
2018-09-04T11:22:13.093Z,101820.80
2018-09-04T11:24:41.928Z,101821.04
2018-09-04T11:27:10.728Z,101824.80
2018-09-04T11:29:40.431Z,101823.87
2018-09-04T11:32:09.281Z,101828.16
2018-09-04T11:34:38.112Z,101833.45
2018-09-04T11:37:06.980Z,101828.14
2018-09-04T11:39:35.757Z,101825.94
2018-09-04T11:42:04.639Z,101820.91
2018-09-04T11:44:33.484Z,101827.83
2018-09-04T11:47:03.275Z,101821.25
2018-09-04T11:49:31.972Z,101825.25
2018-09-04T11:52:00.795Z,101822.59
2018-09-04T11:54:29.571Z,101824.23
2018-09-04T11:56:58.520Z,101816.95
2018-09-04T11:59:27.396Z,101810.66
2018-09-04T12:01:57.987Z,101809.61
2018-09-04T12:04:26.805Z,101808.64
2018-09-04T12:06:55.740Z,101807.48
2018-09-04T12:09:24.588Z,101812.04
2018-09-04T12:11:53.415Z,101809.14
2018-09-04T12:14:22.531Z,101817.66
2018-09-04T12:16:51.347Z,101817.60
2018-09-04T12:19:20.228Z,101819.47
2018-09-04T12:21:49.039Z,101814.31
2018-09-04T12:24:17.923Z,101813.53
2018-09-04T12:26:46.745Z,101808.27
2018-09-04T12:29:15.541Z,101809.83
2018-09-04T12:31:44.444Z,101810.83
2018-09-04T12:34:13.376Z,101817.06
2018-09-04T12:36:42.219Z,101815.03
2018-09-04T12:39:10.976Z,101811.44
2018-09-04T12:41:40.091Z,101812.95
2018-09-04T12:44:08.918Z,101802.43
2018-09-04T12:46:37.861Z,101801.69
2018-09-04T12:49:06.673Z,101806.00
2018-09-04T12:51:35.464Z,101806.74
2018-09-04T12:54:04.280Z,101807.61
2018-09-04T12:56:33.093Z,101810.39
2018-09-04T12:59:02.044Z,101808.62
2018-09-04T13:01:30.866Z,101808.00
2018-09-04T13:03:59.719Z,101803.78
2018-09-04T13:06:28.524Z,101797.94
2018-09-04T13:08:57.432Z,101795.65
2018-09-04T13:11:26.382Z,101800.76
2018-09-04T13:13:55.244Z,101799.50
2018-09-04T13:16:24.013Z,101792.80
2018-09-04T13:18:52.896Z,101800.98
2018-09-04T13:21:22.385Z,101795.14
2018-09-04T13:23:51.267Z,101788.99
2018-09-04T13:26:20.018Z,101793.08
2018-09-04T13:28:48.900Z,101795.66
2018-09-04T13:31:17.651Z,101792.96
2018-09-04T13:33:46.472Z,101792.69
2018-09-04T13:36:15.391Z,101788.88
2018-09-04T13:38:44.146Z,101784.81
2018-09-04T13:41:12.971Z,101783.94
2018-09-04T13:43:41.724Z,101784.94
2018-09-04T13:46:10.624Z,101780.92
2018-09-04T13:48:39.524Z,101769.02
2018-09-04T13:51:08.767Z,101778.04
2018-09-04T13:53:37.531Z,101781.38
2018-09-04T13:56:06.461Z,101780.64
2018-09-04T13:58:35.314Z,101784.34
2018-09-04T14:01:04.219Z,101784.01
2018-09-04T14:03:32.981Z,101781.47
2018-09-04T14:06:01.812Z,101787.16
2018-09-04T14:08:30.592Z,101779.10
2018-09-04T14:11:00.459Z,101778.53
2018-09-04T14:13:30.703Z,101780.20
2018-09-04T14:16:02.409Z,101783.11
2018-09-04T14:18:31.205Z,101787.42
2018-09-04T14:21:00.039Z,101783.70
2018-09-04T14:23:28.837Z,101792.16
2018-09-04T14:25:57.691Z,101786.88
2018-09-04T14:28:41.682Z,101780.50
2018-09-04T14:30:56.189Z,101780.05
2018-09-04T14:33:25.047Z,101778.99
2018-09-04T14:35:53.931Z,101777.77
2018-09-04T14:38:22.832Z,101778.55
2018-09-04T14:40:51.641Z,101776.30
2018-09-04T14:43:20.452Z,101776.88
2018-09-04T14:45:49.293Z,101781.61
2018-09-04T14:48:18.126Z,101775.06
2018-09-04T14:50:47.028Z,101787.11
2018-09-04T14:53:15.828Z,101784.77
2018-09-04T14:55:44.584Z,101784.25
2018-09-04T14:58:13.375Z,101789.13
2018-09-04T15:00:42.172Z,101792.45
2018-09-04T15:03:11.054Z,101781.52
2018-09-04T15:05:39.823Z,101787.39
2018-09-04T15:08:08.628Z,101787.64
2018-09-04T15:10:37.398Z,101782.23
2018-09-04T15:13:06.256Z,101785.89
2018-09-04T15:15:35.183Z,101785.30
2018-09-04T15:18:04.014Z,101787.89
2018-09-04T15:20:32.779Z,101780.75
2018-09-04T15:23:01.683Z,101780.84
2018-09-04T15:25:30.483Z,101779.27
2018-09-04T15:27:59.384Z,101778.30
2018-09-04T15:30:28.165Z,101780.39
2018-09-04T15:32:56.981Z,101780.04
2018-09-04T15:35:25.816Z,101782.91
2018-09-04T15:37:54.616Z,101776.72
2018-09-04T15:40:23.505Z,101778.11
2018-09-04T15:42:52.375Z,101783.20
2018-09-04T15:45:27.188Z,101785.13
2018-09-04T15:47:56.008Z,101784.75
2018-09-04T15:50:24.912Z,101787.20
2018-09-04T15:52:53.697Z,101786.69
2018-09-04T15:55:22.601Z,101785.64
2018-09-04T15:57:51.365Z,101788.08
2018-09-04T16:00:20.232Z,101782.31
2018-09-04T16:02:49.032Z,101786.52
2018-09-04T16:05:17.874Z,101787.02
2018-09-04T16:07:46.713Z,101783.53
2018-09-04T16:10:15.648Z,101780.67
2018-09-04T16:12:44.319Z,101788.86
2018-09-04T16:15:13.275Z,101777.06
2018-09-04T16:17:42.082Z,101775.60
2018-09-04T16:20:10.964Z,101780.06
2018-09-04T16:22:39.793Z,101777.41
2018-09-04T16:25:08.766Z,101779.62
2018-09-04T16:27:37.656Z,101777.84
2018-09-04T16:30:06.569Z,101773.57
2018-09-04T16:32:35.341Z,101781.88
2018-09-04T16:35:04.156Z,101778.80
2018-09-04T16:37:33.009Z,101778.60
2018-09-04T16:40:02.083Z,101778.48
2018-09-04T16:42:30.924Z,101773.18
2018-09-04T16:44:59.712Z,101775.33
2018-09-04T16:47:29.007Z,101777.11
2018-09-04T16:49:58.057Z,101780.02
2018-09-04T16:52:27.019Z,101780.34
2018-09-04T16:54:55.897Z,101776.00
2018-09-04T16:57:24.753Z,101781.33
2018-09-04T16:59:53.550Z,101781.78
2018-09-04T17:02:22.486Z,101776.15
2018-09-04T17:04:51.356Z,101779.90
2018-09-04T17:07:20.192Z,101780.98
2018-09-04T17:09:48.995Z,101788.08
2018-09-04T17:12:17.916Z,101785.89
2018-09-04T17:14:46.708Z,101795.71
2018-09-04T17:17:15.574Z,101795.02
2018-09-04T17:19:44.415Z,101791.16
2018-09-04T17:22:13.267Z,101796.42
2018-09-04T17:24:42.042Z,101795.16
2018-09-04T17:27:10.811Z,101792.94
2018-09-04T17:29:39.972Z,101795.62
2018-09-04T17:32:08.838Z,101796.50
2018-09-04T17:34:37.657Z,101791.94
2018-09-04T17:37:06.458Z,101788.89
2018-09-04T17:39:35.268Z,101795.31
2018-09-04T17:42:04.146Z,101789.45
2018-09-04T17:44:32.956Z,101796.31
2018-09-04T17:47:01.886Z,101792.78
2018-09-04T17:49:30.704Z,101792.97
2018-09-04T17:51:59.463Z,101802.44
2018-09-04T17:54:28.583Z,101803.08
2018-09-04T17:56:57.372Z,101812.15
2018-09-04T17:59:26.204Z,101808.44
2018-09-04T18:01:54.987Z,101815.66
2018-09-04T18:04:23.803Z,101811.12
2018-09-04T18:06:52.728Z,101816.20
2018-09-04T18:09:21.560Z,101814.33
2018-09-04T18:11:50.805Z,101825.84
2018-09-04T18:14:19.649Z,101827.55
2018-09-04T18:16:48.468Z,101826.02
2018-09-04T18:19:18.053Z,101832.55
2018-09-04T18:21:47.207Z,101832.03
2018-09-04T18:24:16.066Z,101839.70
2018-09-04T18:26:44.930Z,101844.37
2018-09-04T18:29:13.996Z,101842.00
2018-09-04T18:31:42.844Z,101847.81
2018-09-04T18:34:11.716Z,101847.89
2018-09-04T18:36:40.567Z,101850.64
2018-09-04T18:39:09.637Z,101853.08
2018-09-04T18:41:38.488Z,101861.84
2018-09-04T18:44:07.333Z,101862.25
2018-09-04T18:46:36.353Z,101857.33
2018-09-04T18:49:05.230Z,101862.11
2018-09-04T18:51:34.021Z,101862.74
2018-09-04T18:54:02.860Z,101865.34
2018-09-04T18:56:31.810Z,101873.89
2018-09-04T18:59:00.858Z,101876.12
2018-09-04T19:01:29.963Z,101877.69
2018-09-04T19:03:58.845Z,101879.31
2018-09-04T19:06:27.645Z,101876.56
2018-09-04T19:08:56.499Z,101887.29
2018-09-04T19:11:25.302Z,101886.28
2018-09-04T19:13:54.230Z,101893.05
2018-09-04T19:16:23.269Z,101892.07
2018-09-04T19:18:52.108Z,101902.16
2018-09-04T19:21:21.030Z,101900.78
2018-09-04T19:23:49.854Z,101900.20
2018-09-04T19:26:18.688Z,101899.81
2018-09-04T19:28:47.536Z,101900.59
2018-09-04T19:31:16.323Z,101902.78
2018-09-04T19:33:45.159Z,101907.89
2018-09-04T19:36:14.251Z,101904.53
2018-09-04T19:38:43.055Z,101909.46
2018-09-04T19:41:12.499Z,101906.91
2018-09-04T19:43:41.279Z,101912.63
2018-09-04T19:46:10.195Z,101919.55
2018-09-04T19:48:39.012Z,101918.16
2018-09-04T19:51:07.803Z,101920.12
2018-09-04T19:53:36.978Z,101923.06
2018-09-04T19:56:05.959Z,101931.36
2018-09-04T19:58:34.767Z,101925.63
2018-09-04T20:01:03.626Z,101928.78
2018-09-04T20:03:32.428Z,101929.34
2018-09-04T20:06:01.277Z,101932.09
2018-09-04T20:08:30.079Z,101931.06
2018-09-04T20:10:58.915Z,101934.61
2018-09-04T20:13:27.835Z,101937.37
2018-09-04T20:15:56.656Z,101936.52
2018-09-04T20:18:25.455Z,101933.96
2018-09-04T20:20:54.259Z,101926.96
2018-09-04T20:23:23.101Z,101938.23
2018-09-04T20:25:51.866Z,101945.33
2018-09-04T20:28:20.706Z,101943.19
2018-09-04T20:30:49.495Z,101942.39
2018-09-04T20:33:18.358Z,101942.75
2018-09-04T20:35:47.186Z,101943.09
2018-09-04T20:38:16.013Z,101944.27
2018-09-04T20:40:45.207Z,101941.64
2018-09-04T20:43:14.080Z,101947.78
2018-09-04T20:45:48.065Z,101951.09
2018-09-04T20:48:16.920Z,101951.19
2018-09-04T20:50:45.739Z,101950.88
2018-09-04T20:53:14.636Z,101953.63
2018-09-04T20:55:43.455Z,101956.53
2018-09-04T20:58:29.476Z,101957.03
2018-09-04T21:01:15.215Z,101949.02
2018-09-04T21:04:01.251Z,101950.70
2018-09-04T21:06:42.848Z,101947.69
2018-09-04T21:10:23.828Z,101961.37
2018-09-04T21:12:52.677Z,101954.08
2018-09-04T21:15:21.488Z,101954.89
2018-09-04T21:17:50.913Z,101966.03
2018-09-04T21:20:19.780Z,101956.52
2018-09-04T21:22:48.700Z,101971.52
2018-09-04T21:25:17.814Z,101970.79
2018-09-04T21:27:46.588Z,101967.66
2018-09-04T21:30:15.381Z,101973.80
2018-09-04T21:32:44.572Z,101973.92
2018-09-04T21:35:13.342Z,101969.69
2018-09-04T21:37:42.312Z,101976.88
2018-09-04T21:40:11.352Z,101968.09
2018-09-04T21:42:40.132Z,101975.41
2018-09-04T21:45:08.996Z,101970.81
2018-09-04T21:47:38.014Z,101976.37
2018-09-04T21:50:07.642Z,101973.77
2018-09-04T21:52:36.431Z,101981.55
2018-09-04T21:55:06.078Z,101983.66
2018-09-04T21:57:34.859Z,101980.52
2018-09-04T22:00:04.570Z,101983.78
2018-09-04T22:02:33.519Z,101978.75
2018-09-04T22:05:02.413Z,101978.70
2018-09-04T22:07:31.228Z,101977.77
2018-09-04T22:10:00.512Z,101983.52
2018-09-04T22:12:29.860Z,101981.18
2018-09-04T22:14:58.707Z,101988.52
2018-09-04T22:17:27.910Z,101992.03
2018-09-04T22:19:56.755Z,101990.00
2018-09-04T22:22:25.556Z,101999.52
2018-09-04T22:24:54.575Z,102004.88
2018-09-04T22:27:23.396Z,102002.47
2018-09-04T22:29:52.229Z,102009.06
2018-09-04T22:32:21.564Z,102008.16
2018-09-04T22:34:50.404Z,102000.52
2018-09-04T22:37:19.191Z,102006.33
2018-09-04T22:39:48.347Z,102012.59
2018-09-04T22:42:17.154Z,102012.94
2018-09-04T22:44:45.959Z,102011.06
2018-09-04T22:47:15.117Z,102010.13
2018-09-04T22:49:49.447Z,102009.03
2018-09-04T22:52:23.043Z,102018.52
2018-09-04T22:54:55.914Z,102018.95
2018-09-04T22:57:25.232Z,102011.20
2018-09-04T22:59:54.023Z,102010.63
2018-09-04T23:02:22.874Z,102012.20
2018-09-04T23:04:51.821Z,102016.70
2018-09-04T23:07:20.785Z,102021.91
2018-09-04T23:09:49.606Z,102021.84
2018-09-04T23:12:18.791Z,102028.08
2018-09-04T23:14:47.654Z,102029.08
2018-09-04T23:17:16.420Z,102030.20
2018-09-04T23:19:45.561Z,102023.86
2018-09-04T23:22:14.383Z,102020.01
2018-09-04T23:24:43.168Z,102015.22
2018-09-04T23:27:12.354Z,102027.41
2018-09-04T23:29:41.446Z,102025.63
2018-09-04T23:32:10.209Z,102026.34
2018-09-04T23:34:39.943Z,102026.55
2018-09-04T23:37:08.735Z,102024.36
2018-09-04T23:39:38.180Z,102024.16
2018-09-04T23:42:07.294Z,102025.41
2018-09-04T23:44:36.103Z,102030.56
2018-09-04T23:47:05.283Z,102026.92
2018-09-04T23:49:34.590Z,102020.73
2018-09-04T23:52:03.495Z,102028.29
2018-09-04T23:54:32.380Z,102026.00
2018-09-04T23:57:01.312Z,102026.91
2018-09-04T23:59:30.087Z,102028.75
